createdAt,value
2023-11-07T00:00:20.985Z,140.00
2023-11-07T00:00:53.532Z,138.67
2023-11-07T00:01:28.097Z,139.33
2023-11-07T00:02:00.777Z,139.00
2023-11-07T00:02:33.744Z,137.33
2023-11-07T00:03:06.384Z,136.00
2023-11-07T00:03:39.053Z,136.67
2023-11-07T00:04:12.042Z,135.67
2023-11-07T00:04:44.603Z,135.00
2023-11-07T00:05:17.164Z,135.00
2023-11-07T00:05:49.849Z,135.67
2023-11-07T00:06:22.541Z,136.00
2023-11-07T00:06:55.141Z,136.67
2023-11-07T00:07:27.629Z,137.00
2023-11-07T00:08:00.452Z,137.67
2023-11-07T00:08:32.944Z,138.00
2023-11-07T00:09:05.516Z,138.67
2023-11-07T00:09:38.058Z,139.00
2023-11-07T00:10:10.856Z,139.00
2023-11-07T00:10:43.549Z,139.00
2023-11-07T00:11:16.049Z,139.00
2023-11-07T00:11:48.626Z,139.00
2023-11-07T00:12:21.355Z,139.00
2023-11-07T00:12:53.838Z,139.00
2023-11-07T00:13:26.369Z,139.67
2023-11-07T00:13:58.903Z,140.00
2023-11-07T00:14:31.728Z,140.00
2023-11-07T00:15:04.700Z,140.00
2023-11-07T00:15:37.273Z,140.00
2023-11-07T00:16:11.842Z,140.00
2023-11-07T00:16:44.380Z,140.00
2023-11-07T00:17:16.958Z,140.00
2023-11-07T00:17:51.623Z,140.00
2023-11-07T00:18:24.374Z,141.00
2023-11-07T00:18:57.371Z,141.00
2023-11-07T00:19:29.927Z,141.00
2023-11-07T00:20:04.341Z,141.00
2023-11-07T00:20:38.011Z,139.67
2023-11-07T00:21:10.996Z,136.67
2023-11-07T00:21:44.491Z,130.33
2023-11-07T00:22:17.004Z,130.67
2023-11-07T00:22:49.550Z,132.00
2023-11-07T00:23:22.510Z,132.67
2023-11-07T00:23:55.089Z,134.67
2023-11-07T00:24:27.689Z,136.33
2023-11-07T00:25:00.233Z,137.00
2023-11-07T00:25:33.070Z,137.00
2023-11-07T00:26:05.912Z,137.00
2023-11-07T00:26:38.425Z,137.67
2023-11-07T00:27:11.242Z,138.00
2023-11-07T00:27:43.804Z,138.00
2023-11-07T00:28:16.362Z,138.00
2023-11-07T00:28:49.597Z,138.00
2023-11-07T00:29:24.177Z,138.67
2023-11-07T00:29:56.720Z,139.00
2023-11-07T00:30:29.210Z,139.00
2023-11-07T00:31:01.703Z,139.00
2023-11-07T00:31:34.667Z,139.00
2023-11-07T00:32:07.492Z,138.00
2023-11-07T00:32:41.109Z,138.67
2023-11-07T00:33:13.791Z,139.00
2023-11-07T00:33:46.531Z,138.00
2023-11-07T00:34:19.630Z,138.00
2023-11-07T00:34:52.187Z,139.00
2023-11-07T00:35:24.775Z,139.00
2023-11-07T00:35:57.448Z,139.00
2023-11-07T00:36:29.976Z,139.67
2023-11-07T00:37:02.484Z,140.00
2023-11-07T00:37:35.293Z,139.33
2023-11-07T00:38:07.925Z,139.00
2023-11-07T00:38:40.738Z,138.00
2023-11-07T00:39:13.319Z,136.67
2023-11-07T00:39:45.820Z,136.00
2023-11-07T00:40:18.370Z,135.00
2023-11-07T00:40:50.889Z,135.00
2023-11-07T00:41:24.777Z,133.33
2023-11-07T00:41:57.901Z,132.00
2023-11-07T00:42:30.458Z,131.00
2023-11-07T00:43:03.916Z,131.00
2023-11-07T00:43:36.413Z,131.00
2023-11-07T00:44:08.927Z,131.00
2023-11-07T00:44:41.563Z,129.67
2023-11-07T00:45:14.111Z,129.00
2023-11-07T00:45:46.635Z,129.00
2023-11-07T00:46:19.841Z,129.00
2023-11-07T00:46:52.370Z,128.00
2023-11-07T00:47:24.880Z,128.67
2023-11-07T00:47:58.182Z,129.33
2023-11-07T00:48:30.971Z,130.00
2023-11-07T00:49:03.804Z,130.00
2023-11-07T00:49:36.395Z,130.00
2023-11-07T00:50:11.835Z,130.00
2023-11-07T00:50:44.929Z,130.00
2023-11-07T00:51:17.491Z,130.67
2023-11-07T00:51:50.006Z,131.00
2023-11-07T00:52:22.912Z,131.00
2023-11-07T00:52:55.401Z,131.00
2023-11-07T00:53:27.947Z,132.00
2023-11-07T00:54:00.588Z,132.00
2023-11-07T00:54:33.101Z,132.00
2023-11-07T00:55:08.605Z,131.00
2023-11-07T00:55:41.118Z,131.00
2023-11-07T00:56:13.637Z,131.00
2023-11-07T00:56:46.228Z,132.00
2023-11-07T00:57:18.763Z,133.00
2023-11-07T00:57:51.317Z,133.00
2023-11-07T00:58:23.939Z,133.00
2023-11-07T00:58:56.432Z,136.33
2023-11-07T00:59:28.920Z,140.00
2023-11-07T01:00:01.850Z,143.67
2023-11-07T01:00:37.084Z,146.00
2023-11-07T01:01:10.190Z,145.00
2023-11-07T01:01:42.707Z,145.00
2023-11-07T01:02:15.201Z,145.00
2023-11-07T01:02:47.872Z,146.33
2023-11-07T01:03:20.485Z,147.67
2023-11-07T01:03:53.282Z,148.00
2023-11-07T01:04:25.923Z,147.00
2023-11-07T01:04:58.512Z,145.33
2023-11-07T01:05:31.327Z,144.33
2023-11-07T01:06:04.514Z,142.67
2023-11-07T01:06:37.173Z,137.67
2023-11-07T01:07:10.092Z,131.00
2023-11-07T01:07:42.626Z,125.33
2023-11-07T01:08:15.619Z,125.00
2023-11-07T01:08:48.195Z,124.00
2023-11-07T01:09:20.736Z,123.67
2023-11-07T01:09:53.227Z,122.67
2023-11-07T01:10:25.751Z,119.00
2023-11-07T01:10:58.246Z,112.67
2023-11-07T01:11:31.065Z,112.33
2023-11-07T01:12:04.447Z,107.00
2023-11-07T01:12:36.948Z,103.33
2023-11-07T01:13:09.423Z,100.67
2023-11-07T01:13:41.909Z,103.33
2023-11-07T01:14:15.116Z,107.00
2023-11-07T01:14:47.658Z,109.67
2023-11-07T01:15:20.796Z,111.00
2023-11-07T01:15:53.634Z,112.00
2023-11-07T01:16:26.567Z,112.67
2023-11-07T01:16:59.303Z,113.33
2023-11-07T01:17:32.040Z,115.00
2023-11-07T01:18:07.597Z,118.33
2023-11-07T01:18:40.541Z,119.67
2023-11-07T01:19:13.200Z,120.00
2023-11-07T01:19:45.942Z,120.00
2023-11-07T01:20:18.432Z,119.00
2023-11-07T01:20:51.042Z,118.00
2023-11-07T01:21:23.536Z,117.00
2023-11-07T01:21:56.057Z,117.00
2023-11-07T01:22:29.079Z,118.00
2023-11-07T01:23:01.970Z,119.33
2023-11-07T01:23:34.552Z,121.67
2023-11-07T01:24:48.175Z,125.33
2023-11-07T01:25:20.754Z,129.00
2023-11-07T01:25:53.269Z,128.33
2023-11-07T01:26:25.855Z,127.33
2023-11-07T01:26:59.101Z,125.67
2023-11-07T01:27:32.698Z,125.00
2023-11-07T01:28:05.390Z,125.00
2023-11-07T01:28:37.915Z,124.67
2023-11-07T01:29:10.460Z,123.00
2023-11-07T01:29:43.022Z,121.33
2023-11-07T01:30:15.692Z,120.00
2023-11-07T01:30:51.000Z,111.67
2023-11-07T01:31:23.612Z,97.00
2023-11-07T01:31:56.649Z,100.67
2023-11-07T01:32:29.746Z,104.67
2023-11-07T01:33:02.372Z,106.00
2023-11-07T01:33:36.398Z,105.67
2023-11-07T01:34:09.944Z,99.00
2023-11-07T01:34:42.599Z,97.00
2023-11-07T01:35:15.105Z,94.00
2023-11-07T01:35:47.665Z,82.33
2023-11-07T01:36:20.193Z,79.67
2023-11-07T01:36:52.728Z,86.00
2023-11-07T01:37:25.232Z,93.00
2023-11-07T01:37:57.773Z,95.33
2023-11-07T01:38:30.461Z,98.00
2023-11-07T01:39:04.077Z,97.00
2023-11-07T01:39:36.612Z,95.33
2023-11-07T01:40:13.667Z,97.33
2023-11-07T01:40:46.181Z,98.00
2023-11-07T01:41:18.780Z,98.00
2023-11-07T01:41:51.484Z,99.00
2023-11-07T01:42:24.017Z,105.33
2023-11-07T01:42:56.900Z,116.00
2023-11-07T01:43:29.921Z,121.67
2023-11-07T01:44:02.404Z,124.00
2023-11-07T01:44:35.095Z,124.67
2023-11-07T01:45:08.416Z,123.00
2023-11-07T01:45:42.134Z,123.00
2023-11-07T01:46:15.549Z,121.33
2023-11-07T01:46:48.051Z,118.00
2023-11-07T01:47:24.509Z,113.00
2023-11-07T01:47:57.165Z,112.33
2023-11-07T01:48:30.174Z,113.67
2023-11-07T01:49:02.957Z,116.00
2023-11-07T01:49:35.522Z,118.00
2023-11-07T01:50:11.734Z,117.67
2023-11-07T01:50:44.278Z,116.33
2023-11-07T01:51:16.923Z,101.67
2023-11-07T01:51:50.664Z,84.67
2023-11-07T01:52:23.518Z,80.33
2023-11-07T01:52:56.964Z,75.00
2023-11-07T01:53:30.704Z,74.33
2023-11-07T01:54:05.184Z,74.33
2023-11-07T01:54:38.954Z,73.33
2023-11-07T01:55:17.426Z,75.00
2023-11-07T01:55:50.015Z,74.00
2023-11-07T01:56:24.638Z,79.67
2023-11-07T01:56:57.305Z,83.00
2023-11-07T01:57:29.862Z,84.00
2023-11-07T01:58:03.795Z,80.00
2023-11-07T01:58:37.029Z,72.67
2023-11-07T01:59:09.603Z,75.00
2023-11-07T01:59:42.784Z,79.00
2023-11-07T02:00:16.991Z,81.00
2023-11-07T02:00:51.135Z,84.67
2023-11-07T02:01:25.818Z,92.33
2023-11-07T02:02:01.550Z,103.00
2023-11-07T02:02:34.405Z,107.67
2023-11-07T02:03:08.205Z,105.00
2023-11-07T02:03:40.941Z,102.00
2023-11-07T02:04:14.255Z,102.00
2023-11-07T02:04:48.463Z,101.33
2023-11-07T02:05:21.336Z,98.00
2023-11-07T02:05:53.914Z,91.33
2023-11-07T02:06:26.749Z,82.00
2023-11-07T02:06:59.284Z,78.00
2023-11-07T02:07:32.162Z,77.00
2023-11-07T02:08:06.743Z,78.00
2023-11-07T02:08:39.252Z,79.00
2023-11-07T02:09:12.312Z,79.33
2023-11-07T02:09:45.072Z,79.00
2023-11-07T02:10:18.664Z,75.33
2023-11-07T02:10:51.242Z,74.00
2023-11-07T02:11:25.859Z,73.67
2023-11-07T02:11:58.446Z,72.00
2023-11-07T02:12:30.985Z,73.33
2023-11-07T02:13:03.527Z,74.00
2023-11-07T02:13:36.040Z,75.00
2023-11-07T02:14:10.320Z,75.33
2023-11-07T02:14:43.031Z,76.00
2023-11-07T02:15:28.311Z,79.33
2023-11-07T02:16:00.891Z,91.00
2023-11-07T02:16:33.395Z,91.67
2023-11-07T02:17:06.040Z,89.67
2023-11-07T02:17:38.632Z,84.67
2023-11-07T02:18:11.450Z,79.00
2023-11-07T02:18:44.270Z,76.67
2023-11-07T02:19:16.889Z,75.33
2023-11-07T02:19:49.416Z,75.00
2023-11-07T02:20:22.189Z,75.67
2023-11-07T02:20:54.795Z,76.00
2023-11-07T02:21:30.035Z,76.33
2023-11-07T02:22:02.685Z,77.33
2023-11-07T02:22:35.433Z,78.67
2023-11-07T02:23:18.532Z,79.67
2023-11-07T02:23:51.037Z,81.00
2023-11-07T02:24:23.632Z,81.67
2023-11-07T02:24:56.190Z,82.67
2023-11-07T02:25:28.685Z,83.67
2023-11-07T02:26:01.257Z,86.00
2023-11-07T02:26:33.914Z,88.33
2023-11-07T02:27:07.085Z,89.67
2023-11-07T02:27:39.673Z,92.00
2023-11-07T02:28:12.333Z,93.33
2023-11-07T02:28:47.690Z,95.67
2023-11-07T02:29:20.223Z,102.67
2023-11-07T02:29:52.795Z,110.00
2023-11-07T02:30:26.655Z,115.00
2023-11-07T02:30:59.270Z,117.33
2023-11-07T02:31:31.790Z,118.33
2023-11-07T02:32:04.615Z,119.00
2023-11-07T02:32:37.238Z,119.00
2023-11-07T02:33:09.914Z,118.67
2023-11-07T02:33:42.670Z,116.67
2023-11-07T02:34:15.386Z,115.00
2023-11-07T02:34:47.908Z,115.33
2023-11-07T02:35:20.450Z,115.33
2023-11-07T02:35:52.971Z,115.33
2023-11-07T02:36:25.545Z,115.33
2023-11-07T02:36:58.082Z,115.00
2023-11-07T02:37:30.574Z,114.00
2023-11-07T02:38:04.088Z,114.00
2023-11-07T02:38:36.807Z,113.33
2023-11-07T02:39:13.637Z,113.00
2023-11-07T02:39:46.178Z,112.00
2023-11-07T02:40:18.673Z,112.00
2023-11-07T02:40:52.089Z,111.67
2023-11-07T02:41:24.576Z,111.00
2023-11-07T02:41:57.063Z,111.00
2023-11-07T02:42:30.092Z,110.33
2023-11-07T02:43:02.856Z,110.00
2023-11-07T02:43:35.345Z,109.67
2023-11-07T02:44:07.879Z,108.67
2023-11-07T02:44:40.409Z,107.33
2023-11-07T02:45:13.292Z,107.00
2023-11-07T02:45:45.848Z,106.00
2023-11-07T02:46:18.511Z,106.00
2023-11-07T02:46:52.991Z,106.00
2023-11-07T02:47:26.569Z,105.00
2023-11-07T02:47:59.288Z,105.67
2023-11-07T02:48:32.018Z,106.67
2023-11-07T02:49:06.587Z,107.00
2023-11-07T02:49:39.459Z,107.00
2023-11-07T02:50:12.244Z,106.67
2023-11-07T02:50:45.982Z,106.00
2023-11-07T02:51:19.075Z,105.33
2023-11-07T02:51:51.608Z,104.33
2023-11-07T02:52:24.087Z,104.00
2023-11-07T02:52:56.575Z,104.33
2023-11-07T02:53:29.392Z,105.67
2023-11-07T02:54:02.327Z,108.00
2023-11-07T02:54:34.917Z,110.00
2023-11-07T02:55:08.736Z,111.00
2023-11-07T02:55:41.515Z,112.00
2023-11-07T02:56:14.520Z,113.67
2023-11-07T02:56:47.093Z,126.33
2023-11-07T02:57:19.600Z,140.33
2023-11-07T02:57:52.120Z,145.67
2023-11-07T02:58:25.289Z,152.00
2023-11-07T02:59:00.180Z,155.33
2023-11-07T02:59:32.989Z,151.33
2023-11-07T03:00:06.279Z,144.33
2023-11-07T03:00:39.302Z,140.67
2023-11-07T03:01:17.168Z,136.33
2023-11-07T03:01:52.541Z,132.33
2023-11-07T03:02:25.825Z,131.00
2023-11-07T03:02:59.633Z,130.33
2023-11-07T03:03:33.452Z,130.00
2023-11-07T03:04:06.123Z,130.00
2023-11-07T03:04:39.642Z,129.00
2023-11-07T03:05:12.344Z,128.67
2023-11-07T03:05:45.118Z,124.33
2023-11-07T03:06:19.014Z,114.33
2023-11-07T03:06:51.684Z,105.00
2023-11-07T03:07:24.833Z,99.00
2023-11-07T03:07:58.614Z,103.67
2023-11-07T03:08:31.150Z,106.33
2023-11-07T03:09:03.844Z,108.00
2023-11-07T03:09:36.611Z,109.67
2023-11-07T03:10:09.614Z,110.67
2023-11-07T03:10:42.175Z,112.00
2023-11-07T03:11:14.655Z,112.00
2023-11-07T03:11:47.170Z,113.00
2023-11-07T03:12:20.282Z,113.00
2023-11-07T03:12:52.793Z,114.00
2023-11-07T03:13:25.319Z,113.33
2023-11-07T03:13:57.860Z,113.00
2023-11-07T03:14:30.624Z,113.00
2023-11-07T03:15:03.620Z,113.00
2023-11-07T03:15:36.354Z,113.67
2023-11-07T03:16:09.299Z,115.00
2023-11-07T03:16:42.301Z,117.00
2023-11-07T03:17:14.851Z,118.67
2023-11-07T03:17:48.302Z,119.00
2023-11-07T03:18:21.037Z,120.00
2023-11-07T03:18:53.718Z,120.00
2023-11-07T03:19:26.314Z,120.00
2023-11-07T03:19:58.848Z,120.00
2023-11-07T03:20:31.455Z,120.00
2023-11-07T03:21:08.349Z,120.00
2023-11-07T03:21:41.160Z,120.67
2023-11-07T03:22:13.806Z,123.33
2023-11-07T03:22:46.378Z,135.33
2023-11-07T03:23:19.112Z,143.33
2023-11-07T03:23:51.675Z,141.33
2023-11-07T03:24:24.250Z,141.00
2023-11-07T03:24:56.768Z,139.33
2023-11-07T03:25:29.916Z,141.33
2023-11-07T03:26:03.989Z,145.67
2023-11-07T03:26:36.738Z,151.00
2023-11-07T03:27:09.288Z,153.67
2023-11-07T03:27:41.846Z,151.67
2023-11-07T03:28:14.358Z,149.00
2023-11-07T03:28:47.325Z,147.33
2023-11-07T03:29:19.867Z,146.33
2023-11-07T03:29:52.433Z,145.67
2023-11-07T03:30:24.943Z,145.00
2023-11-07T03:30:57.447Z,144.00
2023-11-07T03:31:30.278Z,143.67
2023-11-07T03:32:02.835Z,143.00
2023-11-07T03:32:35.868Z,143.00
2023-11-07T03:33:08.655Z,143.00
2023-11-07T03:33:41.372Z,143.00
2023-11-07T03:34:13.944Z,143.00
2023-11-07T03:34:46.503Z,143.00
2023-11-07T03:35:19.139Z,142.67
2023-11-07T03:35:51.757Z,141.67
2023-11-07T03:36:24.295Z,140.00
2023-11-07T03:36:56.849Z,136.67
2023-11-07T03:37:29.375Z,133.00
2023-11-07T03:38:01.861Z,132.00
2023-11-07T03:38:34.400Z,132.33
2023-11-07T03:39:07.732Z,133.00
2023-11-07T03:39:40.239Z,132.00
2023-11-07T03:40:13.607Z,132.00
2023-11-07T03:40:46.096Z,133.67
2023-11-07T03:41:18.609Z,134.00
2023-11-07T03:41:51.135Z,134.00
2023-11-07T03:42:23.972Z,134.67
2023-11-07T03:42:56.577Z,135.00
2023-11-07T03:43:29.088Z,135.00
2023-11-07T03:44:01.601Z,134.33
2023-11-07T03:44:36.169Z,133.33
2023-11-07T03:45:08.989Z,131.33
2023-11-07T03:45:41.521Z,130.67
2023-11-07T03:46:14.018Z,129.67
2023-11-07T03:46:46.519Z,128.67
2023-11-07T03:47:19.223Z,128.00
2023-11-07T03:47:51.873Z,128.00
2023-11-07T03:48:24.571Z,128.00
2023-11-07T03:48:57.585Z,129.00
2023-11-07T03:49:30.151Z,131.33
2023-11-07T03:50:03.788Z,135.67
2023-11-07T03:50:36.902Z,139.00
2023-11-07T03:51:09.477Z,141.00
2023-11-07T03:51:42.033Z,142.67
2023-11-07T03:52:15.258Z,142.67
2023-11-07T03:52:48.157Z,143.00
2023-11-07T03:53:21.340Z,143.33
2023-11-07T03:53:55.122Z,144.67
2023-11-07T03:54:27.716Z,145.00
2023-11-07T03:55:00.236Z,145.00
2023-11-07T03:55:33.268Z,144.00
2023-11-07T03:56:06.571Z,144.00
2023-11-07T03:56:39.185Z,143.33
2023-11-07T03:57:11.772Z,143.00
2023-11-07T03:57:44.307Z,143.00
2023-11-07T03:58:16.801Z,142.00
2023-11-07T03:58:49.363Z,142.00
2023-11-07T03:59:21.840Z,141.00
2023-11-07T03:59:54.401Z,139.67
2023-11-07T04:00:26.918Z,139.00
2023-11-07T04:00:59.424Z,139.00
2023-11-07T04:01:36.648Z,139.00
2023-11-07T04:02:09.180Z,139.00
2023-11-07T04:02:41.746Z,140.33
2023-11-07T04:03:14.378Z,142.00
2023-11-07T04:03:47.497Z,146.00
2023-11-07T04:04:21.524Z,152.67
2023-11-07T04:04:54.473Z,158.00
2023-11-07T04:05:27.273Z,158.00
2023-11-07T04:05:59.893Z,155.33
2023-11-07T04:06:32.591Z,154.00
2023-11-07T04:07:05.689Z,153.67
2023-11-07T04:07:38.167Z,153.00
2023-11-07T04:08:10.694Z,154.00
2023-11-07T04:08:43.244Z,156.67
2023-11-07T04:09:15.737Z,162.33
2023-11-07T04:09:48.263Z,171.00
2023-11-07T04:10:20.978Z,177.33
2023-11-07T04:10:53.553Z,176.00
2023-11-07T04:11:26.700Z,170.00
2023-11-07T04:11:59.250Z,166.67
2023-11-07T04:12:33.473Z,165.33
2023-11-07T04:13:06.651Z,163.67
2023-11-07T04:13:39.159Z,162.67
2023-11-07T04:14:11.948Z,160.00
2023-11-07T04:14:46.496Z,158.00
2023-11-07T04:15:19.551Z,157.00
2023-11-07T04:15:52.035Z,157.00
2023-11-07T04:16:24.572Z,157.00
2023-11-07T04:16:59.186Z,158.00
2023-11-07T04:17:31.808Z,159.67
2023-11-07T04:18:04.878Z,161.00
2023-11-07T04:18:37.617Z,160.33
2023-11-07T04:19:10.382Z,160.00
2023-11-07T04:19:43.737Z,159.33
2023-11-07T04:20:17.666Z,159.00
2023-11-07T04:20:51.168Z,158.00
2023-11-07T04:21:23.683Z,156.67
2023-11-07T04:21:56.212Z,156.00
2023-11-07T04:22:29.435Z,154.67
2023-11-07T04:23:01.946Z,153.33
2023-11-07T04:23:34.909Z,152.33
2023-11-07T04:24:07.791Z,151.00
2023-11-07T04:24:40.329Z,150.00
2023-11-07T04:25:12.848Z,149.67
2023-11-07T04:25:45.353Z,149.00
2023-11-07T04:26:19.119Z,148.00
2023-11-07T04:26:51.677Z,148.00
2023-11-07T04:27:24.231Z,148.00
2023-11-07T04:27:58.054Z,149.33
2023-11-07T04:28:32.304Z,155.67
2023-11-07T04:29:05.546Z,163.67
2023-11-07T04:29:38.516Z,167.67
2023-11-07T04:30:11.966Z,168.33
2023-11-07T04:30:44.866Z,184.67
2023-11-07T04:31:17.981Z,214.00
2023-11-07T04:31:51.108Z,212.33
2023-11-07T04:32:23.615Z,205.00
2023-11-07T04:32:56.390Z,202.67
2023-11-07T04:33:29.056Z,192.67
2023-11-07T04:34:02.196Z,185.33
2023-11-07T04:34:35.735Z,183.33
2023-11-07T04:35:11.168Z,180.67
2023-11-07T04:35:43.765Z,176.00
2023-11-07T04:36:17.780Z,172.00
2023-11-07T04:36:53.204Z,169.00
2023-11-07T04:37:25.731Z,166.00
2023-11-07T04:37:58.562Z,165.00
2023-11-07T04:38:31.646Z,164.67
2023-11-07T04:39:04.312Z,158.33
2023-11-07T04:39:36.871Z,154.33
2023-11-07T04:40:10.196Z,153.00
2023-11-07T04:40:42.724Z,154.00
2023-11-07T04:41:15.255Z,156.33
2023-11-07T04:41:47.799Z,161.00
2023-11-07T04:42:20.331Z,146.67
2023-11-07T04:42:52.860Z,123.67
2023-11-07T04:43:27.223Z,132.00
2023-11-07T04:44:00.618Z,143.67
2023-11-07T04:44:33.100Z,146.00
2023-11-07T04:45:08.591Z,136.33
2023-11-07T04:45:41.177Z,124.67
2023-11-07T04:46:14.351Z,113.33
2023-11-07T04:46:48.484Z,100.67
2023-11-07T04:47:21.585Z,98.00
2023-11-07T04:47:54.970Z,95.33
2023-11-07T04:48:28.258Z,92.67
2023-11-07T04:49:01.936Z,112.33
2023-11-07T04:49:35.183Z,122.67
2023-11-07T04:50:09.386Z,127.00
2023-11-07T04:50:41.911Z,132.00
2023-11-07T04:51:18.236Z,137.67
2023-11-07T04:51:50.923Z,140.67
2023-11-07T04:52:23.865Z,141.00
2023-11-07T04:52:56.420Z,141.00
2023-11-07T04:53:29.427Z,141.00
2023-11-07T04:54:02.691Z,141.67
2023-11-07T04:54:35.239Z,142.00
2023-11-07T04:55:08.193Z,142.00
2023-11-07T04:55:40.718Z,142.00
2023-11-07T04:56:13.212Z,142.00
2023-11-07T04:56:45.808Z,142.00
2023-11-07T04:57:18.398Z,141.33
2023-11-07T04:57:53.955Z,141.33
2023-11-07T04:58:28.176Z,142.33
2023-11-07T04:59:00.688Z,143.67
2023-11-07T04:59:34.184Z,144.33
2023-11-07T05:00:09.499Z,144.67
2023-11-07T05:00:42.087Z,144.00
2023-11-07T05:01:14.634Z,144.33
2023-11-07T05:01:49.463Z,166.67
2023-11-07T05:02:21.986Z,229.67
2023-11-07T05:02:54.716Z,230.33
2023-11-07T05:03:33.362Z,208.67
2023-11-07T05:04:11.448Z,186.33
2023-11-07T05:04:47.113Z,180.67
2023-11-07T05:05:19.776Z,179.00
2023-11-07T05:05:52.436Z,182.67
2023-11-07T05:06:26.542Z,191.33
2023-11-07T05:07:00.746Z,195.33
2023-11-07T05:07:33.255Z,198.33
2023-11-07T05:08:06.190Z,200.00
2023-11-07T05:08:39.637Z,195.67
2023-11-07T05:09:13.835Z,191.00
2023-11-07T05:09:46.468Z,188.33
2023-11-07T05:10:19.223Z,186.67
2023-11-07T05:10:51.755Z,185.67
2023-11-07T05:11:24.335Z,185.00
2023-11-07T05:11:58.415Z,184.00
2023-11-07T05:12:33.931Z,183.33
2023-11-07T05:13:07.834Z,182.67
2023-11-07T05:13:40.348Z,182.00
2023-11-07T05:14:12.859Z,182.67
2023-11-07T05:14:45.383Z,187.00
2023-11-07T05:15:18.386Z,187.33
2023-11-07T05:15:51.336Z,186.00
2023-11-07T05:16:23.873Z,185.33
2023-11-07T05:16:56.423Z,184.00
2023-11-07T05:17:28.918Z,180.67
2023-11-07T05:18:01.577Z,175.67
2023-11-07T05:18:34.412Z,172.33
2023-11-07T05:19:11.082Z,172.00
2023-11-07T05:19:44.255Z,172.00
2023-11-07T05:20:16.793Z,172.00
2023-11-07T05:20:49.841Z,172.33
2023-11-07T05:21:22.795Z,174.00
2023-11-07T05:21:55.730Z,177.67
2023-11-07T05:22:28.211Z,182.00
2023-11-07T05:23:00.692Z,185.67
2023-11-07T05:23:33.192Z,189.67
2023-11-07T05:24:06.247Z,193.67
2023-11-07T05:24:38.824Z,197.67
2023-11-07T05:25:11.315Z,198.00
2023-11-07T05:25:44.240Z,198.33
2023-11-07T05:26:16.769Z,199.00
2023-11-07T05:26:49.340Z,199.00
2023-11-07T05:27:21.858Z,210.67
2023-11-07T05:27:54.553Z,211.67
2023-11-07T05:28:27.103Z,204.33
2023-11-07T05:29:00.798Z,201.67
2023-11-07T05:29:33.358Z,200.67
2023-11-07T05:30:06.408Z,200.00
2023-11-07T05:30:39.449Z,199.00
2023-11-07T05:31:12.655Z,199.00
2023-11-07T05:31:48.024Z,198.67
2023-11-07T05:32:20.629Z,198.00
2023-11-07T05:32:53.246Z,198.00
2023-11-07T05:33:25.943Z,197.00
2023-11-07T05:33:58.672Z,197.00
2023-11-07T05:34:31.448Z,197.00
2023-11-07T05:35:06.246Z,196.00
2023-11-07T05:35:38.730Z,196.67
2023-11-07T05:36:11.383Z,197.67
2023-11-07T05:36:43.923Z,198.00
2023-11-07T05:37:17.867Z,197.00
2023-11-07T05:37:50.948Z,196.67
2023-11-07T05:38:23.568Z,194.33
2023-11-07T05:38:57.124Z,191.67
2023-11-07T05:39:29.774Z,187.00
2023-11-07T05:40:02.727Z,181.67
2023-11-07T05:40:35.226Z,177.67
2023-11-07T05:41:07.758Z,175.00
2023-11-07T05:41:40.297Z,175.67
2023-11-07T05:42:12.914Z,175.67
2023-11-07T05:42:45.526Z,176.00
2023-11-07T05:43:19.787Z,176.67
2023-11-07T05:43:53.580Z,177.00
2023-11-07T05:44:26.100Z,177.67
2023-11-07T05:45:00.595Z,179.00
2023-11-07T05:45:33.746Z,179.00
2023-11-07T05:46:07.065Z,171.00
2023-11-07T05:46:39.589Z,174.33
2023-11-07T05:47:12.148Z,180.67
2023-11-07T05:47:45.592Z,201.00
2023-11-07T05:48:18.555Z,213.33
2023-11-07T05:48:54.026Z,208.00
2023-11-07T05:49:26.644Z,204.67
2023-11-07T05:49:59.639Z,202.33
2023-11-07T05:50:32.250Z,201.00
2023-11-07T05:51:04.977Z,197.67
2023-11-07T05:51:39.352Z,191.33
2023-11-07T05:52:11.846Z,190.67
2023-11-07T05:52:45.493Z,190.33
2023-11-07T05:53:19.235Z,195.67
2023-11-07T05:53:51.811Z,203.00
2023-11-07T05:54:24.505Z,205.33
2023-11-07T05:54:57.015Z,219.00
2023-11-07T05:55:29.540Z,231.00
2023-11-07T05:56:02.866Z,235.67
2023-11-07T05:56:35.418Z,242.67
2023-11-07T05:57:07.983Z,257.33
2023-11-07T05:57:40.631Z,262.67
2023-11-07T05:58:13.175Z,256.00
2023-11-07T05:58:48.881Z,247.33
2023-11-07T05:59:22.160Z,234.00
2023-11-07T05:59:54.680Z,229.33
2023-11-07T06:00:27.442Z,227.00
2023-11-07T06:01:00.029Z,222.67
2023-11-07T06:01:32.521Z,212.67
2023-11-07T06:02:05.291Z,207.67
2023-11-07T06:02:38.566Z,206.33
2023-11-07T06:03:14.710Z,207.00
2023-11-07T06:03:47.503Z,207.00
2023-11-07T06:04:37.456Z,205.00
2023-11-07T06:05:10.480Z,196.33
2023-11-07T06:05:45.573Z,193.00
2023-11-07T06:06:18.536Z,192.00
2023-11-07T06:06:52.729Z,192.00
2023-11-07T06:07:25.563Z,193.33
2023-11-07T06:07:59.076Z,195.33
2023-11-07T06:08:31.692Z,196.33
2023-11-07T06:09:04.773Z,197.67
2023-11-07T06:09:37.406Z,198.00
2023-11-07T06:10:10.079Z,199.33
2023-11-07T06:10:42.584Z,200.33
2023-11-07T06:11:16.855Z,202.00
2023-11-07T06:11:49.375Z,205.67
2023-11-07T06:12:21.880Z,206.00
2023-11-07T06:12:54.403Z,206.00
2023-11-07T06:13:26.897Z,206.00
2023-11-07T06:13:59.701Z,206.00
2023-11-07T06:14:32.545Z,206.00
2023-11-07T06:15:05.460Z,207.00
2023-11-07T06:15:39.108Z,207.00
2023-11-07T06:16:11.655Z,208.00
2023-11-07T06:16:44.176Z,208.33
2023-11-07T06:17:18.824Z,209.00
2023-11-07T06:17:51.677Z,208.33
2023-11-07T06:18:25.727Z,208.00
2023-11-07T06:18:58.669Z,208.00
2023-11-07T06:19:31.289Z,207.00
2023-11-07T06:20:04.557Z,207.00
2023-11-07T06:20:37.091Z,207.00
2023-11-07T06:21:11.806Z,207.00
2023-11-07T06:21:44.330Z,206.33
2023-11-07T06:22:17.273Z,205.33
2023-11-07T06:22:49.943Z,203.00
2023-11-07T06:23:24.175Z,201.67
2023-11-07T06:23:56.711Z,200.33
2023-11-07T06:24:29.227Z,200.00
2023-11-07T06:25:02.676Z,200.00
2023-11-07T06:25:35.768Z,200.00
2023-11-07T06:26:08.481Z,201.00
2023-11-07T06:26:41.001Z,204.67
2023-11-07T06:27:13.536Z,209.67
2023-11-07T06:27:46.340Z,213.67
2023-11-07T06:28:18.835Z,220.00
2023-11-07T06:28:51.351Z,226.33
2023-11-07T06:29:23.877Z,229.33
2023-11-07T06:29:56.502Z,230.67
2023-11-07T06:30:31.516Z,232.67
2023-11-07T06:31:04.881Z,233.33
2023-11-07T06:31:37.406Z,234.67
2023-11-07T06:32:10.843Z,234.67
2023-11-07T06:32:43.511Z,233.00
2023-11-07T06:33:16.146Z,232.33
2023-11-07T06:33:48.748Z,231.00
2023-11-07T06:34:21.300Z,229.33
2023-11-07T06:34:54.218Z,229.00
2023-11-07T06:35:27.558Z,228.33
2023-11-07T06:36:00.352Z,228.00
2023-11-07T06:36:33.298Z,227.67
2023-11-07T06:37:05.869Z,227.00
2023-11-07T06:37:38.520Z,236.33
2023-11-07T06:38:11.501Z,262.67
2023-11-07T06:38:44.080Z,371.67
2023-11-07T06:39:19.697Z,416.00
2023-11-07T06:39:53.313Z,458.67
2023-11-07T06:40:25.820Z,396.67
2023-11-07T06:41:01.864Z,334.33
2023-11-07T06:41:35.463Z,315.33
2023-11-07T06:42:08.990Z,312.00
2023-11-07T06:42:45.466Z,301.33
2023-11-07T06:43:18.331Z,294.33
2023-11-07T06:43:52.260Z,293.67
2023-11-07T06:44:27.465Z,291.33
2023-11-07T06:45:00.629Z,283.00
2023-11-07T06:45:33.250Z,276.00
2023-11-07T06:46:06.090Z,270.00
2023-11-07T06:46:42.847Z,260.67
2023-11-07T06:47:15.487Z,247.00
2023-11-07T06:47:48.627Z,233.00
2023-11-07T06:48:21.472Z,231.00
2023-11-07T06:48:56.922Z,244.00
2023-11-07T06:49:32.218Z,306.00
2023-11-07T06:50:05.077Z,364.00
2023-11-07T06:50:37.664Z,370.33
2023-11-07T06:51:13.612Z,335.00
2023-11-07T06:51:46.203Z,306.67
2023-11-07T06:52:18.797Z,301.33
2023-11-07T06:52:53.234Z,288.33
2023-11-07T06:53:25.833Z,265.67
2023-11-07T06:54:01.157Z,254.00
2023-11-07T06:54:34.266Z,250.00
2023-11-07T06:55:07.520Z,258.67
2023-11-07T06:55:41.306Z,264.33